Flight Track Log - Related Links

Times and Time Zones

All times are in EDT time to prevent confusion due to time zone crossing. See the PWA601 flight status page for this flight to view local times or setup timezone preferences in your user account.

Time Position Orientation Groundspeed Altitude Reporting Facility
EDT Latitude Longitude Course Direction KTS MPH feet Rate Location/Type
Wed 06:20:44 PM 43.5675 -72.3742 262° West 454 522 5,000  Level Boston Center
Wed 06:21:44 PM 43.5569 -72.4803 262° West 378 435 8,600 3,100 Climbing Boston Center
Wed 06:22:44 PM 43.5486 -72.5861 264° West 317 365 11,200 2,750 Climbing Boston Center
Wed 06:23:44 PM 43.5381 -72.7036 263° West 307 353 14,100 2,550 Climbing Boston Center
Wed 06:24:44 PM 43.5272 -72.8294 263° West 321 369 16,300 2,200 Climbing Boston Center
Wed 06:25:44 PM 43.5164 -72.9583 263° West 337 388 18,500 2,000 Climbing Boston Center
Wed 06:26:44 PM 43.5011 -73.0756 260° West 342 394 20,300 1,600 Climbing Boston Center
Wed 06:27:44 PM 43.4900 -73.1869 262° West 354 407 21,700 1,900 Climbing Boston Center
Wed 06:28:44 PM 43.4764 -73.3556 264° West 365 420 24,100 1,900 Climbing Boston Center
Wed 06:29:44 PM 43.4606 -73.4928 261° West 371 427 25,500 1,273 Climbing Boston Center
Wed 06:30:56 PM 43.4467 -73.6356 262° West 371 427 26,900 1,182 Climbing Boston Center
Wed 06:31:56 PM 43.4281 -73.8094 262° West 376 433 28,100 1,100 Climbing Boston Center
Wed 06:32:56 PM 43.4136 -73.9578 262° West 392 451 29,100 1,000 Climbing Boston Center
Wed 06:33:56 PM 43.3967 -74.1258 262° West 392 451 30,100 950 Climbing Boston Center
Wed 06:34:56 PM 43.3797 -74.2742 261° West 397 457 31,000 950 Climbing Boston Center
Wed 06:35:56 PM 43.3647 -74.4222 262° West 402 463 32,000 950 Climbing Boston Center
Wed 06:36:56 PM 43.3497 -74.5700 262° West 402 463 32,900 950 Climbing Boston Center
Wed 06:37:56 PM 43.3342 -74.7181 262° West 402 463 33,900 950 Climbing Boston Center
Wed 06:38:56 PM 43.3167 -74.8631 261° West 396 456 34,800 950 Climbing Boston Center
Wed 06:39:56 PM 43.3011 -75.0078 262° West 390 449 35,800 900 Climbing Boston Center
Wed 06:40:56 PM 43.2858 -75.1214 260° West 385 443 36,600 1,100 Climbing Boston Center
Wed 06:41:56 PM 43.2689 -75.3031 263° West 391 450 38,000 700 Climbing Boston Center
Wed 06:42:56 PM 43.2678 -75.4372 269° West 396 456 38,000  Level Boston Center
Wed 06:43:56 PM 43.2619 -75.5767 267° West 396 456 38,000  Level Boston Center
Wed 06:44:56 PM 43.2203 -75.7169 248° West 391 450 38,000  Level Boston Center
Wed 06:45:56 PM 43.1786 -75.8569 248° West 398 458 38,000  Level Boston Center
Wed 06:46:56 PM 43.1367 -76.0028 249° West 408 470 38,000  Level Boston Center
Wed 06:47:56 PM 43.0925 -76.1481 247° West 408 470 38,000  Level Boston Center
Wed 06:49:32 PM 43.0278 -76.3767 249° West 401 461 38,000  Level Cleveland Center
Wed 06:50:32 PM 43.0061 -76.5314 259° West 407 468 38,000  Level Cleveland Center
Wed 06:51:32 PM 43.0056 -76.6933 270° West 418 481 38,000  Level Cleveland Center
Wed 06:52:32 PM 43.0089 -76.8636 272° West 418 481 38,000  Level Cleveland Center
Wed 06:53:32 PM 43.0036 -77.0231 267° West 423 487 38,000  Level Cleveland Center
Wed 06:54:32 PM 43.0000 -77.1822 268° West 423 487 38,000  Level Cleveland Center
Wed 06:55:32 PM 42.9961 -77.3386 268° West 423 487 38,000  Level Cleveland Center
Wed 06:56:32 PM 42.9922 -77.4978 268° West 423 487 38,000  Level Cleveland Center
Wed 06:57:32 PM 42.9881 -77.6542 268° West 423 487 38,000  Level Cleveland Center
Wed 06:58:32 PM 42.9856 -77.8131 269° West 423 487 38,000  Level Cleveland Center
Wed 06:59:32 PM 42.9789 -77.9667 267° West 423 487 38,000  Level Cleveland Center
Wed 07:00:32 PM 42.9778 -78.1172 269° West 430 495 38,000  Level Cleveland Center
Wed 07:01:32 PM 42.9708 -78.2736 267° West 425 489 38,000  Level Cleveland Center
Wed 07:02:32 PM 42.9675 -78.4297 268° West 425 489 38,000  Level Cleveland Center
Wed 07:03:32 PM 42.9619 -78.5889 267° West 425 489 38,000  Level Cleveland Center
Wed 07:04:32 PM 42.9522 -78.7622 266° West 425 489 38,000  Level Cleveland Center
Wed 07:05:32 PM 42.9442 -78.9128 266° West 425 489 38,000  Level Cleveland Center
Wed 07:06:32 PM 42.9358 -79.0603 266° West 425 489 38,000  Level Cleveland Center
Wed 07:07:32 PM 42.9272 -79.2108 266° West 425 489 38,000  Level Cleveland Center
Wed 07:08:34 PM 42.9167 -79.3833 265° West 410 472 38,000  Level Toronto Center
Wed 07:09:34 PM 42.9167 -79.5167 270° West 420 483 38,000  Level Toronto Center
Wed 07:10:34 PM 42.9000 -79.6833 262° West 410 472 38,000  Level Toronto Center
Wed 07:11:34 PM 42.9000 -79.8333 270° West 410 472 38,000  Level Toronto Center
Wed 07:12:34 PM 42.9000 -80.0000 270° West 410 472 38,000  Level Toronto Center
Wed 07:13:34 PM 42.8833 -80.1500 261° West 410 472 38,000  Level Toronto Center
Wed 07:14:34 PM 42.8833 -80.3167 270° West 410 472 38,000  Level Toronto Center
Wed 07:15:34 PM 42.8667 -80.4667 261° West 410 472 38,000  Level Toronto Center
Wed 07:16:34 PM 42.8667 -80.6167 270° West 410 472 38,000  Level Toronto Center
Wed 07:17:34 PM 42.8667 -80.7667 270° West 400 460 38,000  Level Toronto Center
Wed 07:18:34 PM 42.8333 -80.9333 255° West 400 460 38,000  Level Toronto Center
Wed 07:19:34 PM 42.8333 -81.0833 270° West 400 460 38,000  Level Toronto Center
Wed 07:20:34 PM 42.8333 -81.2167 270° West 400 460 38,000  Level Toronto Center
Wed 07:21:34 PM 42.8167 -81.3833 262° West 400 460 38,000  Level Toronto Center
Wed 07:22:34 PM 42.8167 -81.5500 270° West 400 460 38,000  Level Toronto Center
Wed 07:23:34 PM 42.8000 -81.6833 260° West 400 460 38,000  Level Toronto Center
Wed 07:24:34 PM 42.8000 -81.8333 270° West 400 460 38,000  Level Toronto Center
Wed 07:25:34 PM 42.7833 -82.0000 262° West 400 460 38,000  Level Toronto Center
Wed 07:26:34 PM 42.7667 -82.1500 261° West 400 460 38,000  Level Toronto Center
Wed 07:27:34 PM 42.7667 -82.2833 270° West 400 460 38,000  Level Toronto Center
Wed 07:28:34 PM 42.7667 -82.4500 270° West 400 460 38,000  Level Toronto Center
Wed 07:29:34 PM 42.7500 -82.6000 261° West 400 460 38,000  Level Toronto Center
Wed 07:30:34 PM 42.7333 -82.7500 261° West 400 460 38,000  Level Toronto Center
Wed 07:31:34 PM 42.7167 -82.9000 261° West 400 460 38,000  Level Toronto Center
Wed 07:32:34 PM 42.7167 -83.0333 270° West 400 460 38,000 -100 Level Toronto Center
Wed 07:33:34 PM 42.7167 -83.2000 270° West 400 460 37,800 -700 Descending Toronto Center
Wed 07:34:34 PM 42.6833 -83.3500 253° West 400 460 36,600 -1,100 Descending Toronto Center
Wed 07:35:34 PM 42.6833 -83.5167 270° West 410 472 35,600 -1,450 Descending Toronto Center
Wed 07:36:34 PM 42.6833 -83.6667 270° West 420 483 33,700 -1,850 Descending Toronto Center
Wed 07:37:34 PM 42.6500 -83.8333 255° West 440 506 31,900 -1,700 Descending Toronto Center
Wed 07:38:34 PM 42.6333 -83.9833 261° West 440 506 30,300 -1,133 Descending Toronto Center
Wed 07:39:04 PM 42.6503 -84.0522 289° West 437 503 30,200 -220 Descending Chicago Center
Wed 07:39:56 PM 42.6369 -84.1961 263° West 437 503 30,000 -107 Descending Cleveland Center
Wed 07:40:56 PM 42.6258 -84.3506 264° West 424 488 30,000  Level Cleveland Center
Wed 07:41:56 PM 42.6350 -84.5064 275° West 419 482 30,000  Level Cleveland Center
Wed 07:43:12 PM 42.6517 -84.7194 276° West 438 504 30,000  Level Chicago Center
Wed 07:44:15 PM 42.6639 -84.8878 276° West 446 513 30,000  Level Chicago Center
Wed 07:45:17 PM 42.6781 -85.0558 277° West 447 514 30,000 -677 Level Chicago Center
Wed 07:46:19 PM 42.6656 -85.2167 264° West 431 496 28,600 -1,500 Descending Chicago Center
Wed 07:47:21 PM 42.6253 -85.3978 253° West 417 480 26,900 -1,548 Descending Chicago Center
Wed 07:48:23 PM 42.5917 -85.5464 253° West 413 475 25,400 -1,452 Descending Chicago Center
Wed 07:49:25 PM 42.5578 -85.6994 253° West 418 481 23,900 -1,500 Descending Chicago Center
Wed 07:50:27 PM 42.5219 -85.8500 252° West 418 481 22,300 -1,500 Descending Chicago Center
Wed 07:51:29 PM 42.4872 -86.0069 253° West 430 495 20,800 -1,113 Descending Chicago Center
Wed 07:52:31 PM 42.4608 -86.1706 258° West 445 512 20,000 -387 Descending Chicago Center
Wed 07:53:33 PM 42.4531 -86.3311 266° West 430 495 20,000 -1,113 Level Chicago Center
Wed 07:54:35 PM 42.4439 -86.5161 266° West 412 474 17,700 -2,274 Descending Chicago Center
Wed 07:55:37 PM 42.4350 -86.6508 265° West 365 420 15,300 -2,226 Descending Chicago Center
Wed 07:56:39 PM 42.4311 -86.7742 268° West 338 389 13,100 -2,129 Descending Chicago Center
Wed 07:57:41 PM 42.4244 -86.8892 266° West 318 366 10,900 -2,016 Descending Chicago Center
Wed 07:58:44 PM 42.4192 -86.9972 266° West 300 345 8,900 -1,872 Descending Chicago Center
Wed 07:59:46 PM 42.4097 -87.0950 263° West 273 314 7,000 -2,032 Descending Chicago Center
Wed 08:00:48 PM 42.4028 -87.2147 266° West 266 306 4,700 -1,935 Descending Chicago Center
Wed 08:01:50 PM 42.3975 -87.3106 266° West 261 300 3,000 -823 Descending Chicago Center
Wed 08:02:52 PM 42.3781 -87.4033 254° West 259 298 3,000  Level Chicago Center
Wed 08:03:54 PM 42.3522 -87.4908 248° West 255 293 3,000  Level Chicago Center
Wed 08:04:56 PM 42.3247 -87.5775 247° West 254 292 3,000  Level Chicago Center
Wed 08:05:58 PM 42.3031 -87.6811 254° West 247 284 3,000 -48 Level Chicago Center
Wed 08:07:00 PM 42.2939 -87.7594 261° West 232 267 2,900 -290 Descending Chicago Center
Wed 08:08:02 PM 42.2828 -87.8333 259° West 218 251 2,400 -240 Descending Chicago Center
Wed 08:09:05 PM 42.2800 -87.9117 267° West 213 245 2,400  Level Chicago Center
Wed 08:10:07 PM 42.2703 -87.9681 257° West 192 221 2,400  Level Chicago Center
Wed 08:11:09 PM 42.2197 -87.9592 173° South 163 188 2,400 -194 Level Chicago Center
Wed 08:12:11 PM 42.1892 -87.9444 160° South 154 177 2,000 -387 Descending Chicago Center
Wed 08:15:00 PM 42.1143 -87.9015 166° South  Level Estimated

Login

Don't have an account? Register now (free) for customized features, flight alerts, and more!